This is the latest recevied weather packets stored in our database for station/object K4SPB-4. If no packets are shown the sender has not sent any weather packets the latest 10 day(s).
| Time | Temp. | Humidity | Pressure | Rain* | Wind** | Luminosity | Snow |
|---|---|---|---|---|---|---|---|
| 1777857032 | 20.56° C | 40% | 1014.4 hPa | 0 mm | - | - | - |
| 1777856428 | 21.11° C | 39% | 1014.6 hPa | 0 mm | - | - | - |
| 1777854039 | 22.22° C | 35% | 1014.5 hPa | 0 mm | - | - | - |
| 1777853418 | 22.22° C | 34% | 1014.4 hPa | 0 mm | - | - | - |
| 1777851063 | 22.78° C | 32% | 1014.9 hPa | 0 mm | - | - | - |
| 1777849241 | 22.78° C | 30% | 1015.1 hPa | 0 mm | - | - | - |
| 1777846852 | 23.33° C | 27% | 1015.5 hPa | 0 mm | - | - | - |
| 1777845628 | 22.78° C | 28% | 1015.6 hPa | 0 mm | - | - | - |
| 1777845024 | 22.78° C | 26% | 1015.8 hPa | 0 mm | - | - | - |
| 1777842635 | 22.78° C | 29% | 1016.4 hPa | 0 mm | - | - | - |
| 1777837236 | 22.22° C | 32% | 1017.8 hPa | 0 mm | - | - | - |
| 1777836052 | 21.67° C | 34% | 1018.4 hPa | 0 mm | - | - | - |
| 1777834829 | 21.11° C | 34% | 1018.7 hPa | 0 mm | - | - | - |
| 1777833643 | 20.56° C | 34% | 1018.9 hPa | 0 mm | - | - | - |
| 1777827018 | 19.44° C | 39% | 1020.7 hPa | 0 mm | - | - | - |
| 1777819833 | 15.56° C | 47% | 1021.4 hPa | 0 mm | - | - | - |
| 1777815920 | 12.78° C | 60% | 1021.4 hPa | 0 mm | - | - | - |
| 1777815319 | 12.22° C | 64% | 1021.4 hPa | 0 mm | - | - | - |
| 1777812625 | 10° C | 77% | 1021.4 hPa | 0 mm | - | - | - |
| 1777808431 | 7.22° C | 88% | 1020.6 hPa | 0 mm | - | - | - |
| 1777803652 | 7.78° C | 86% | 1020.1 hPa | 0 mm | - | - | - |
| 1777803030 | 7.78° C | 85% | 1020 hPa | 0 mm | - | - | - |
| 1777800019 | 8.89° C | 81% | 1019.8 hPa | 0 mm | - | - | - |
| 1777797048 | 8.89° C | 80% | 1020 hPa | 0 mm | - | - | - |
| 1777791026 | 10.56° C | 73% | 1019.8 hPa | 0 mm | - | - | - |
* Rain latest hour (hover to see other rain measurements)
** Current wind speed in m/s (hover to see current wind gust speed)